createdAt,value
2018-12-25T00:00:23.765Z,48.8
2018-12-25T00:01:13.541Z,48.8
2018-12-25T00:02:03.897Z,48.8
2018-12-25T00:02:53.948Z,48.8
2018-12-25T00:03:43.429Z,48.8
2018-12-25T00:04:33.792Z,48.7
2018-12-25T00:05:24.362Z,48.7
2018-12-25T00:07:04.475Z,48.7
2018-12-25T00:07:54.267Z,48.7
2018-12-25T00:08:44.056Z,48.7
2018-12-25T00:09:34.229Z,48.7
2018-12-25T00:10:24.432Z,48.7
2018-12-25T00:11:14.231Z,48.7
2018-12-25T00:12:04.669Z,48.7
2018-12-25T00:12:54.161Z,48.7
2018-12-25T00:13:44.656Z,48.7
2018-12-25T00:14:34.750Z,48.6
2018-12-25T00:32:44.380Z,48.5
2018-12-25T00:33:34.195Z,48.5
2018-12-25T00:34:23.968Z,48.5
2018-12-25T00:35:13.970Z,48.5
2018-12-25T00:36:03.780Z,48.5
2018-12-25T00:36:54.384Z,48.5
2018-12-25T00:37:44.257Z,48.5
2018-12-25T00:38:34.521Z,48.4
2018-12-25T00:39:24.117Z,48.4
2018-12-25T00:40:14.322Z,48.4
2018-12-25T00:41:04.407Z,48.4
2018-12-25T00:41:54.734Z,48.5
2018-12-25T00:42:45.040Z,48.4
2018-12-25T00:43:33.544Z,48.4
2018-12-25T00:44:24.634Z,48.4
2018-12-25T00:45:15.211Z,48.4
2018-12-25T00:46:05.016Z,48.4
2018-12-25T00:46:54.805Z,48.4
2018-12-25T00:47:45.122Z,48.4
2018-12-25T00:48:35.199Z,48.4
2018-12-25T00:49:25.244Z,48.4
2018-12-25T00:50:15.044Z,48.4
2018-12-25T00:51:05.091Z,48.4
2018-12-25T00:51:55.478Z,48.4
2018-12-25T00:52:45.476Z,48.4
2018-12-25T00:53:35.544Z,48.4
2018-12-25T00:54:25.591Z,48.4
2018-12-25T00:55:15.640Z,48.4
2018-12-25T00:56:05.425Z,48.4
2018-12-25T00:56:55.489Z,48.3
2018-12-25T00:57:45.623Z,48.3
2018-12-25T00:58:36.238Z,48.3
2018-12-25T00:59:25.686Z,48.3
2018-12-25T01:00:15.711Z,48.3
2018-12-25T01:01:05.783Z,48.3
2018-12-25T01:01:55.286Z,48.3
2018-12-25T01:02:45.616Z,48.3
2018-12-25T01:03:35.928Z,48.3
2018-12-25T01:04:25.984Z,48.3
2018-12-25T01:05:15.513Z,48.3
2018-12-25T01:06:06.278Z,48.3
2018-12-25T01:06:55.343Z,48.3
2018-12-25T01:07:46.591Z,48.3
2018-12-25T01:08:36.027Z,48.3
2018-12-25T01:09:26.377Z,48.3
2018-12-25T01:10:16.715Z,48.3
2018-12-25T01:11:06.830Z,48.3
2018-12-25T01:11:56.818Z,48.3
2018-12-25T01:12:46.853Z,48.3
2018-12-25T01:13:36.630Z,48.2
2018-12-25T01:14:26.715Z,48.3
2018-12-25T01:15:17.020Z,48.2
2018-12-25T01:16:06.910Z,48.2
2018-12-25T01:16:56.333Z,48.2
2018-12-25T01:17:47.210Z,48.2
2018-12-25T01:18:36.725Z,48.2
2018-12-25T01:19:27.285Z,48.2
2018-12-25T01:20:17.380Z,48.2
2018-12-25T01:21:06.872Z,48.2
2018-12-25T01:21:56.942Z,48.1
2018-12-25T01:22:47.265Z,48.1
2018-12-25T01:23:37.334Z,48.1
2018-12-25T01:24:27.417Z,48.1
2018-12-25T01:25:17.747Z,48.1
2018-12-25T01:26:07.509Z,48.1
2018-12-25T01:26:57.832Z,48.1
2018-12-25T01:27:47.915Z,48.1
2018-12-25T01:28:37.947Z,48.1
2018-12-25T01:29:28.099Z,48.1
2018-12-25T01:30:17.795Z,48.1
2018-12-25T01:31:08.201Z,48.1
2018-12-25T01:31:57.919Z,48.1
2018-12-25T01:32:48.249Z,48.1
2018-12-25T01:33:38.029Z,48.1
2018-12-25T01:34:28.114Z,48.1
2018-12-25T01:35:18.127Z,48.1
2018-12-25T01:36:08.207Z,48.1
2018-12-25T01:36:58.247Z,48.1
2018-12-25T01:37:47.484Z,48.1
2018-12-25T01:38:38.469Z,48.1
2018-12-25T01:39:28.174Z,48
2018-12-25T01:40:17.898Z,48.1
2018-12-25T01:41:08.609Z,48
2018-12-25T01:41:58.599Z,48
2018-12-25T01:42:48.391Z,48
2018-12-25T01:43:38.711Z,48
2018-12-25T01:44:28.498Z,48
2018-12-25T01:45:19.090Z,48
2018-12-25T01:46:08.875Z,48
2018-12-25T01:46:58.653Z,47.9
2018-12-25T01:47:49.001Z,47.9
2018-12-25T01:48:39.334Z,47.9
2018-12-25T01:49:35.837Z,47.9
2018-12-25T01:50:19.419Z,47.9
2018-12-25T01:51:09.288Z,47.9
2018-12-25T01:51:59.552Z,47.9
2018-12-25T01:52:49.616Z,47.9
2018-12-25T01:53:38.825Z,47.9
2018-12-25T01:54:29.453Z,47.9
2018-12-25T01:55:19.560Z,47.9
2018-12-25T01:56:09.285Z,47.9
2018-12-25T01:56:59.745Z,47.9
2018-12-25T01:57:49.390Z,47.9
2018-12-25T01:58:39.457Z,47.9
2018-12-25T01:59:29.525Z,47.9
2018-12-25T02:00:20.672Z,47.9
2018-12-25T02:01:09.915Z,47.9
2018-12-25T02:02:00.542Z,47.9
2018-12-25T02:02:49.742Z,47.9
2018-12-25T02:03:40.364Z,47.8
2018-12-25T02:04:30.147Z,47.8
2018-12-25T02:05:20.511Z,47.8
2018-12-25T02:06:10.555Z,47.8
2018-12-25T02:07:00.306Z,47.8
2018-12-25T02:07:50.079Z,47.8
2018-12-25T02:08:40.711Z,47.8
2018-12-25T02:09:30.759Z,47.8
2018-12-25T02:10:19.985Z,47.8
2018-12-25T02:11:10.887Z,47.8
2018-12-25T02:12:00.937Z,47.8
2018-12-25T02:12:50.719Z,47.8
2018-12-25T02:13:40.771Z,47.8
2018-12-25T02:14:30.296Z,47.8
2018-12-25T02:15:20.879Z,47.8
2018-12-25T02:16:10.917Z,47.8
2018-12-25T02:17:00.691Z,47.8
2018-12-25T02:17:51.053Z,47.8
2018-12-25T02:18:41.101Z,47.8
2018-12-25T02:19:30.596Z,47.8
2018-12-25T02:20:21.501Z,47.7
2018-12-25T02:21:11.285Z,47.8
2018-12-25T02:22:01.343Z,47.7
2018-12-25T02:22:51.419Z,47.7
2018-12-25T02:23:41.749Z,47.7
2018-12-25T02:24:31.531Z,47.7
2018-12-25T02:25:21.933Z,47.7
2018-12-25T02:26:11.900Z,47.7
2018-12-25T02:27:01.950Z,47.7
2018-12-25T02:27:52.020Z,47.6
2018-12-25T02:28:41.809Z,47.6
2018-12-25T02:29:32.111Z,47.7
2018-12-25T02:30:22.268Z,47.6
2018-12-25T02:31:12.139Z,47.6
2018-12-25T02:32:01.493Z,47.6
2018-12-25T02:32:52.367Z,47.6
2018-12-25T02:33:42.161Z,47.6
2018-12-25T02:34:32.510Z,47.6
2018-12-25T02:35:22.324Z,47.6
2018-12-25T02:36:12.674Z,47.6
2018-12-25T02:37:02.118Z,47.6
2018-12-25T02:37:52.474Z,47.6
2018-12-25T02:38:42.518Z,47.6
2018-12-25T02:39:32.845Z,47.6
2018-12-25T02:40:22.110Z,47.6
2018-12-25T02:41:12.830Z,47.5
2018-12-25T02:42:02.469Z,47.5
2018-12-25T02:42:52.270Z,47.6
2018-12-25T02:43:42.310Z,47.8
2018-12-25T02:44:32.948Z,47.9
2018-12-25T02:45:22.947Z,48.1
2018-12-25T02:46:13.625Z,48.3
2018-12-25T02:47:03.132Z,48.5
2018-12-25T02:47:52.887Z,48.7
2018-12-25T02:48:43.212Z,48.9
2018-12-25T02:49:32.751Z,49.2
2018-12-25T02:50:23.215Z,49.4
2018-12-25T02:51:13.642Z,49.7
2018-12-25T02:52:03.427Z,49.9
2018-12-25T02:52:52.997Z,50.2
2018-12-25T02:53:43.254Z,50.4
2018-12-25T02:54:33.674Z,50.7
2018-12-25T02:55:23.677Z,50.9
2018-12-25T02:56:13.495Z,51.1
2018-12-25T02:57:04.080Z,51.4
2018-12-25T02:57:54.138Z,51.6
2018-12-25T02:58:43.872Z,51.9
2018-12-25T02:59:33.944Z,52.1
2018-12-25T03:01:13.786Z,52.6
2018-12-25T03:02:03.427Z,52.8
2018-12-25T03:02:54.459Z,53.1
2018-12-25T03:03:44.668Z,53.3
2018-12-25T03:04:34.597Z,53.6
2018-12-25T03:05:24.439Z,53.8
2018-12-25T03:06:14.112Z,54.1
2018-12-25T03:07:05.001Z,54.3
2018-12-25T03:07:54.239Z,54.6
2018-12-25T03:08:44.840Z,54.8
2018-12-25T03:09:35.017Z,55.1
2018-12-25T03:10:24.678Z,55.3
2018-12-25T03:11:14.764Z,55.6
2018-12-25T03:12:05.130Z,55.8
2018-12-25T03:12:55.135Z,56.1
2018-12-25T03:13:45.108Z,56.3
2018-12-25T03:14:35.318Z,56.6
2018-12-25T03:15:25.093Z,56.8
2018-12-25T03:16:15.428Z,57
2018-12-25T03:17:05.158Z,57.3
2018-12-25T03:17:55.503Z,57.5
2018-12-25T03:19:35.289Z,58
2018-12-25T03:20:25.106Z,58.3
2018-12-25T03:21:15.732Z,58.5
2018-12-25T03:22:05.208Z,58.8
2018-12-25T03:22:55.591Z,59
2018-12-25T03:23:45.332Z,59.2
2018-12-25T03:24:35.411Z,59.4
2018-12-25T03:25:26.142Z,59.7
2018-12-25T03:26:15.509Z,59.9
2018-12-25T03:27:06.122Z,60.1
2018-12-25T03:27:56.259Z,60.3
2018-12-25T03:28:46.488Z,60.3
2018-12-25T03:29:36.084Z,60.6
2018-12-25T03:30:26.218Z,60.8
2018-12-25T03:31:16.536Z,61.1
2018-12-25T03:32:06.936Z,61.3
2018-12-25T03:32:56.458Z,61.6
2018-12-25T03:33:46.565Z,61.8
2018-12-25T03:34:36.387Z,62
2018-12-25T03:35:26.477Z,62.1
2018-12-25T03:36:15.929Z,62.2
2018-12-25T03:37:05.991Z,62.3
2018-12-25T03:37:56.707Z,62.6
2018-12-25T03:38:46.486Z,62.6
2018-12-25T03:39:37.262Z,62.7
2018-12-25T03:40:27.034Z,62.8
2018-12-25T03:41:16.819Z,62.9
2018-12-25T03:42:06.962Z,63
2018-12-25T03:42:56.934Z,63.1
2018-12-25T03:43:46.712Z,63.1
2018-12-25T03:44:37.160Z,63.1
2018-12-25T03:45:26.553Z,63.1
2018-12-25T03:46:16.921Z,63.3
2018-12-25T03:47:07.211Z,63.3
2018-12-25T03:47:57.578Z,63.3
2018-12-25T03:48:47.319Z,63.3
2018-12-25T03:49:37.394Z,63.3
2018-12-25T03:50:27.726Z,63.3
2018-12-25T03:51:17.780Z,63.3
2018-12-25T03:52:07.601Z,63.3
2018-12-25T03:52:57.945Z,63.3
2018-12-25T03:53:47.733Z,63.3
2018-12-25T03:54:37.742Z,63.3
2018-12-25T03:55:28.048Z,63.3
2018-12-25T03:56:17.337Z,63.3
2018-12-25T03:57:07.904Z,63.3
2018-12-25T03:57:57.999Z,63.2
2018-12-25T03:58:48.033Z,63.2
2018-12-25T03:59:38.093Z,63.2
2018-12-25T04:00:27.879Z,63.2
2018-12-25T04:01:17.635Z,63.2
2018-12-25T04:02:08.007Z,63.2
2018-12-25T04:02:58.847Z,63.2
2018-12-25T04:03:48.380Z,63.1
2018-12-25T04:04:38.705Z,63.1
2018-12-25T04:05:29.114Z,63.1
2018-12-25T04:06:18.365Z,63.1
2018-12-25T04:07:08.915Z,63.1
2018-12-25T04:07:58.650Z,63.1
2018-12-25T04:08:48.737Z,63.1
2018-12-25T04:09:39.082Z,63.1
2018-12-25T04:10:28.570Z,63.1
2018-12-25T04:11:18.975Z,63.1
2018-12-25T04:12:08.686Z,63.1
2018-12-25T04:12:59.019Z,63.1
2018-12-25T04:13:49.437Z,63
2018-12-25T04:14:39.365Z,63
2018-12-25T04:15:29.188Z,63
2018-12-25T04:16:19.537Z,63
2018-12-25T04:17:09.278Z,63
2018-12-25T04:17:59.339Z,63
2018-12-25T04:18:49.647Z,63
2018-12-25T04:19:39.176Z,62.9
2018-12-25T04:20:29.806Z,62.9
2018-12-25T04:21:19.722Z,62.9
2018-12-25T04:22:09.632Z,62.9
2018-12-25T04:22:59.957Z,62.9
2018-12-25T04:23:50.311Z,62.9
2018-12-25T04:24:39.811Z,62.9
2018-12-25T04:25:29.904Z,62.9
2018-12-25T04:26:19.089Z,62.9
2018-12-25T04:27:09.983Z,62.9
2018-12-25T04:28:00.289Z,62.9
2018-12-25T04:28:50.071Z,62.9
2018-12-25T04:29:40.416Z,62.9
2018-12-25T04:30:30.473Z,62.8
2018-12-25T04:31:19.897Z,62.8
2018-12-25T04:32:10.313Z,62.8
2018-12-25T04:33:00.354Z,62.8
2018-12-25T04:33:50.662Z,62.8
2018-12-25T04:34:40.198Z,62.8
2018-12-25T04:35:30.819Z,62.8
2018-12-25T04:36:20.574Z,62.8
2018-12-25T04:37:10.913Z,62.8
2018-12-25T04:38:00.218Z,62.8
2018-12-25T04:38:51.097Z,62.8
2018-12-25T04:39:40.846Z,62.8
2018-12-25T04:40:31.108Z,62.8
2018-12-25T04:41:21.500Z,62.8
2018-12-25T04:42:10.251Z,62.7
2018-12-25T04:43:00.877Z,62.7
2018-12-25T04:43:51.135Z,62.7
2018-12-25T04:44:41.426Z,62.7
2018-12-25T05:01:57.087Z,62.5
2018-12-25T05:02:46.621Z,62.5
2018-12-25T05:03:37.429Z,62.5
2018-12-25T05:04:27.001Z,62.5
2018-12-25T05:05:16.757Z,62.5
2018-12-25T05:06:06.828Z,62.5
2018-12-25T05:06:57.826Z,62.4
2018-12-25T05:07:47.226Z,62.4
2018-12-25T05:08:37.492Z,62.4
2018-12-25T05:09:27.815Z,62.4
2018-12-25T05:10:18.016Z,62.4
2018-12-25T05:11:07.674Z,62.4
2018-12-25T05:11:57.739Z,62.4
2018-12-25T05:12:48.066Z,62.4
2018-12-25T05:13:37.813Z,62.4
2018-12-25T05:14:28.370Z,62.4
2018-12-25T05:15:17.920Z,62.4
2018-12-25T05:16:08.264Z,62.4
2018-12-25T05:16:58.320Z,62.4
2018-12-25T05:17:48.621Z,62.4
2018-12-25T05:18:38.158Z,62.4
2018-12-25T05:19:28.486Z,62.4
2018-12-25T05:20:18.262Z,62.3
2018-12-25T05:21:07.762Z,62.3
2018-12-25T05:21:58.972Z,62.3
2018-12-25T05:22:48.705Z,62.3
2018-12-25T05:23:38.487Z,62.3
2018-12-25T05:24:28.545Z,62.3
2018-12-25T05:25:18.619Z,62.3
2018-12-25T05:26:08.404Z,62.3
2018-12-25T05:26:58.438Z,62.3
2018-12-25T05:27:49.027Z,62.3
2018-12-25T05:28:38.847Z,62.3
2018-12-25T05:29:28.617Z,62.3
2018-12-25T05:30:18.369Z,62.3
2018-12-25T05:31:08.477Z,62.3
2018-12-25T05:31:58.520Z,62.2
2018-12-25T05:32:48.859Z,62.2
2018-12-25T05:33:39.225Z,62.2
2018-12-25T05:34:29.290Z,62.3
2018-12-25T05:35:18.769Z,62.2
2018-12-25T05:36:09.374Z,62.2
2018-12-25T05:36:59.700Z,62.2
2018-12-25T05:37:49.499Z,62.1
2018-12-25T05:38:39.909Z,62.1
2018-12-25T05:39:29.384Z,62.1
2018-12-25T05:40:19.277Z,62.1
2018-12-25T05:41:08.948Z,62.1
2018-12-25T05:41:59.289Z,62.1
2018-12-25T05:42:49.612Z,62.1
2018-12-25T05:43:39.846Z,62.1
2018-12-25T05:44:29.934Z,62.1
2018-12-25T05:45:20.586Z,62.1
2018-12-25T05:46:10.346Z,62.1
2018-12-25T05:47:00.389Z,62.1
2018-12-25T05:47:50.170Z,62.1
2018-12-25T05:48:40.461Z,62.1
2018-12-25T05:49:30.283Z,62
2018-12-25T05:50:20.323Z,62
2018-12-25T05:51:10.395Z,62.1
2018-12-25T05:52:00.168Z,62
2018-12-25T05:52:50.503Z,62.1
2018-12-25T05:53:40.838Z,62
2018-12-25T05:54:30.058Z,62
2018-12-25T05:55:22.625Z,62
2018-12-25T05:56:11.005Z,62
2018-12-25T05:57:01.073Z,62
2018-12-25T05:57:50.611Z,61.9
2018-12-25T05:58:41.420Z,61.9
2018-12-25T05:59:30.736Z,61.9
2018-12-25T06:00:20.820Z,61.9
2018-12-25T06:01:10.330Z,61.9
2018-12-25T06:02:00.430Z,61.9
2018-12-25T06:02:50.160Z,61.9
2018-12-25T06:03:41.102Z,61.9
2018-12-25T06:04:31.072Z,61.9
2018-12-25T06:05:20.328Z,61.9
2018-12-25T06:06:10.107Z,61.9
2018-12-25T06:07:00.835Z,61.9
2018-12-25T06:07:51.410Z,61.9
2018-12-25T06:08:43.072Z,61.9
2018-12-25T06:09:31.497Z,61.9
2018-12-25T06:10:21.507Z,61.9
2018-12-25T06:11:11.553Z,61.8
2018-12-25T06:12:01.333Z,61.9
2018-12-25T06:12:51.123Z,61.8
2018-12-25T06:13:41.737Z,61.8
2018-12-25T06:14:31.787Z,61.8
2018-12-25T06:15:22.312Z,61.8
2018-12-25T06:16:12.157Z,61.8
2018-12-25T06:17:02.159Z,61.8
2018-12-25T06:17:51.659Z,61.8
2018-12-25T06:18:42.599Z,61.8
2018-12-25T06:19:32.052Z,61.8
2018-12-25T06:20:22.402Z,61.8
2018-12-25T06:21:11.964Z,61.8
2018-12-25T06:22:02.217Z,61.8
2018-12-25T06:22:52.819Z,61.8
2018-12-25T06:23:42.614Z,61.7
2018-12-25T06:24:32.933Z,61.7
2018-12-25T06:25:23.093Z,61.7
2018-12-25T06:26:12.782Z,61.7
2018-12-25T06:27:02.872Z,61.7
2018-12-25T06:27:52.904Z,61.7
2018-12-25T06:28:42.986Z,61.7
2018-12-25T06:29:33.297Z,61.6
2018-12-25T06:30:23.363Z,61.6
2018-12-25T06:31:13.126Z,61.6
2018-12-25T06:32:02.161Z,61.6
2018-12-25T06:32:51.941Z,61.6
2018-12-25T06:33:43.293Z,61.6
2018-12-25T06:34:33.363Z,61.6
2018-12-25T06:35:23.416Z,61.6
2018-12-25T06:36:13.518Z,61.6
2018-12-25T06:37:03.538Z,61.6
2018-12-25T06:37:52.358Z,61.6
2018-12-25T06:38:43.713Z,61.6
2018-12-25T06:39:33.463Z,61.6
2018-12-25T06:40:23.278Z,61.6
2018-12-25T06:41:13.543Z,61.6
2018-12-25T06:42:03.882Z,61.5
2018-12-25T06:42:54.202Z,61.5
2018-12-25T06:43:44.560Z,61.5
2018-12-25T06:44:34.307Z,61.5
2018-12-25T06:45:23.816Z,61.5
2018-12-25T06:46:14.670Z,61.5
2018-12-25T06:47:04.283Z,61.4
2018-12-25T06:47:54.632Z,61.5
2018-12-25T06:48:44.296Z,61.4
2018-12-25T06:49:34.195Z,61.4
2018-12-25T06:50:23.890Z,61.4
2018-12-25T06:51:14.732Z,61.4
2018-12-25T06:52:04.350Z,61.4
2018-12-25T06:52:53.588Z,61.4
2018-12-25T06:53:44.657Z,61.4
2018-12-25T06:54:35.012Z,61.4
2018-12-25T06:55:24.587Z,61.4
2018-12-25T06:56:14.094Z,61.4
2018-12-25T06:57:04.690Z,61.4
2018-12-25T06:57:54.757Z,61.4
2018-12-25T06:58:44.541Z,61.3
2018-12-25T06:59:34.673Z,61.4
2018-12-25T07:00:24.653Z,61.3
2018-12-25T07:01:14.704Z,61.3
2018-12-25T07:02:04.231Z,61.3
2018-12-25T07:02:54.819Z,61.3
2018-12-25T07:03:44.423Z,61.3
2018-12-25T07:04:35.202Z,61.3
2018-12-25T07:05:25.248Z,61.3
2018-12-25T07:06:14.203Z,61.3
2018-12-25T07:07:05.566Z,61.3
2018-12-25T07:07:55.166Z,61.3
2018-12-25T07:08:45.523Z,61.3
2018-12-25T07:09:36.022Z,61.3
2018-12-25T07:10:26.100Z,61.3
2018-12-25T07:11:15.661Z,61.3
2018-12-25T07:12:05.725Z,61.2
2018-12-25T07:12:55.510Z,61.2
2018-12-25T07:13:46.303Z,61.2
2018-12-25T07:14:35.168Z,61.2
2018-12-25T07:15:34.750Z,61.2
2018-12-25T07:16:16.485Z,61.2
2018-12-25T07:17:06.265Z,61.2
2018-12-25T07:17:56.329Z,61.1
2018-12-25T07:18:46.107Z,61.1
2018-12-25T07:19:36.552Z,61.1
2018-12-25T07:20:26.495Z,61.1
2018-12-25T07:21:16.570Z,61.1
2018-12-25T07:22:06.099Z,61.1
2018-12-25T07:22:56.447Z,61.1
2018-12-25T07:23:46.584Z,61.1
2018-12-25T07:24:37.036Z,61.1
2018-12-25T07:25:27.114Z,61.1
2018-12-25T07:26:17.137Z,61.1
2018-12-25T07:27:07.197Z,61.1
2018-12-25T07:27:57.284Z,61.1
2018-12-25T07:28:47.066Z,61.1
2018-12-25T07:29:36.846Z,61.1
2018-12-25T07:30:26.766Z,61
2018-12-25T07:31:17.487Z,61
2018-12-25T07:32:07.819Z,61
2018-12-25T07:32:57.686Z,61
2018-12-25T07:33:46.976Z,61
2018-12-25T07:34:37.254Z,61
2018-12-25T07:35:27.883Z,61
2018-12-25T07:36:17.945Z,60.9
2018-12-25T07:37:07.155Z,60.9
2018-12-25T07:37:57.229Z,60.9
2018-12-25T07:38:47.465Z,60.9
2018-12-25T07:39:37.448Z,60.9
2018-12-25T07:40:27.645Z,60.9
2018-12-25T07:41:17.768Z,60.9
2018-12-25T07:42:08.255Z,60.9
2018-12-25T07:42:58.069Z,60.9
2018-12-25T07:43:48.080Z,60.9
2018-12-25T07:44:38.420Z,60.9
2018-12-25T07:45:28.238Z,60.9
2018-12-25T07:46:17.702Z,60.9
2018-12-25T07:47:08.300Z,60.9
2018-12-25T07:47:58.377Z,60.8
2018-12-25T07:48:48.474Z,60.8
2018-12-25T07:49:38.267Z,60.8
2018-12-25T07:50:29.065Z,60.8
2018-12-25T07:51:24.646Z,60.8
2018-12-25T07:52:09.124Z,60.8
2018-12-25T07:52:58.764Z,60.8
2018-12-25T07:53:49.007Z,60.8
2018-12-25T07:54:39.092Z,60.8
2018-12-25T07:55:28.609Z,60.8
2018-12-25T07:56:18.712Z,60.8
2018-12-25T07:57:09.000Z,60.8
2018-12-25T07:57:59.054Z,60.8
2018-12-25T07:58:48.451Z,60.8
2018-12-25T07:59:38.886Z,60.8
2018-12-25T08:00:28.759Z,60.7
2018-12-25T08:01:19.342Z,60.7
2018-12-25T08:02:09.600Z,60.7
2018-12-25T08:02:59.645Z,60.7
2018-12-25T08:03:49.435Z,60.7
2018-12-25T08:04:38.679Z,60.6
2018-12-25T08:05:29.374Z,60.6
2018-12-25T08:06:19.641Z,60.6
2018-12-25T08:07:09.957Z,60.6
2018-12-25T08:07:59.459Z,60.6
2018-12-25T08:08:50.154Z,60.6
2018-12-25T08:09:40.126Z,60.6
2018-12-25T08:10:30.233Z,60.6
2018-12-25T08:11:19.958Z,60.6
2018-12-25T08:12:10.394Z,60.6
2018-12-25T08:13:00.088Z,60.6
2018-12-25T08:13:50.129Z,60.6
2018-12-25T08:14:40.194Z,60.6
2018-12-25T08:15:30.231Z,60.6
2018-12-25T08:16:20.573Z,60.6
2018-12-25T08:17:10.873Z,60.6
2018-12-25T08:18:00.690Z,60.5
2018-12-25T08:18:50.758Z,60.5
2018-12-25T08:19:41.122Z,60.5
2018-12-25T08:20:30.048Z,60.5
2018-12-25T08:21:29.044Z,60.5
2018-12-25T08:22:10.947Z,60.5
2018-12-25T08:23:06.281Z,60.5
2018-12-25T08:23:50.785Z,60.4
2018-12-25T08:24:41.146Z,60.4
2018-12-25T08:25:31.205Z,60.4
2018-12-25T08:26:21.255Z,60.4
2018-12-25T08:27:11.327Z,60.4
2018-12-25T08:28:00.552Z,60.4
2018-12-25T08:28:50.900Z,60.4
2018-12-25T08:29:40.943Z,60.4
2018-12-25T08:30:30.715Z,60.4
2018-12-25T08:31:21.334Z,60.4
2018-12-25T08:32:11.375Z,60.4
2018-12-25T08:33:01.169Z,60.4
2018-12-25T08:33:51.509Z,60.4
2018-12-25T08:34:41.840Z,60.4
2018-12-25T08:35:31.601Z,60.4
2018-12-25T08:36:22.057Z,60.3
2018-12-25T08:37:12.004Z,60.3
2018-12-25T08:38:01.789Z,60.3
2018-12-25T08:38:51.902Z,60.3
2018-12-25T08:39:41.609Z,60.3
2018-12-25T08:40:32.232Z,60.3
2018-12-25T08:41:22.017Z,60.3
2018-12-25T08:42:12.384Z,60.3
2018-12-25T08:43:01.840Z,60.3
2018-12-25T08:43:52.459Z,60.3
2018-12-25T08:44:42.050Z,60.3
2018-12-25T08:45:32.028Z,60.3
2018-12-25T08:46:22.352Z,60.2
2018-12-25T08:47:14.584Z,60.3
2018-12-25T08:48:02.747Z,60.2
2018-12-25T08:48:52.808Z,60.2
2018-12-25T08:49:42.855Z,60.2
2018-12-25T08:50:32.632Z,60.2
2018-12-25T08:51:22.654Z,60.2
2018-12-25T08:52:12.473Z,60.1
2018-12-25T08:53:02.788Z,60.1
2018-12-25T08:53:53.136Z,60.1
2018-12-25T08:54:42.916Z,60.1
2018-12-25T08:55:32.801Z,60.1
2018-12-25T08:56:22.496Z,60.1
2018-12-25T08:57:12.556Z,60.1
2018-12-25T08:58:03.181Z,60.1
2018-12-25T08:58:53.516Z,60.1
2018-12-25T08:59:43.521Z,60.1
2018-12-25T09:00:33.043Z,60.1
2018-12-25T09:16:23.515Z,59.9
2018-12-25T09:17:13.864Z,59.9
2018-12-25T09:18:03.752Z,59.9
2018-12-25T09:18:53.692Z,59.9
2018-12-25T09:19:43.759Z,59.9
2018-12-25T09:20:33.807Z,59.9
2018-12-25T09:21:25.001Z,59.8
2018-12-25T09:22:13.775Z,59.8
2018-12-25T09:23:03.697Z,59.8
2018-12-25T09:23:54.121Z,59.8
2018-12-25T09:24:44.359Z,59.8
2018-12-25T09:25:33.602Z,59.8
2018-12-25T09:26:25.361Z,59.8
2018-12-25T09:27:14.267Z,59.8
2018-12-25T09:28:04.324Z,59.8
2018-12-25T09:28:54.371Z,59.8
2018-12-25T09:29:44.149Z,59.8
2018-12-25T09:30:34.202Z,59.8
2018-12-25T09:31:25.066Z,59.8
2018-12-25T09:32:14.599Z,59.8
2018-12-25T09:33:04.941Z,59.7
2018-12-25T09:33:54.429Z,59.7
2018-12-25T09:34:44.763Z,59.7
2018-12-25T09:35:34.873Z,59.7
2018-12-25T09:36:24.858Z,59.7
2018-12-25T09:37:15.214Z,59.7
2018-12-25T09:38:05.019Z,59.7
2018-12-25T09:38:54.798Z,59.6
2018-12-25T09:39:44.819Z,59.6
2018-12-25T09:40:35.445Z,59.6
2018-12-25T09:41:25.235Z,59.6
2018-12-25T09:42:14.829Z,59.6
2018-12-25T09:43:04.811Z,59.6
2018-12-25T09:43:55.683Z,59.6
2018-12-25T09:44:45.726Z,59.6
2018-12-25T09:45:35.244Z,59.6
2018-12-25T09:46:25.144Z,59.6
2018-12-25T09:47:15.330Z,59.6
2018-12-25T09:48:14.265Z,59.6
2018-12-25T09:48:55.450Z,59.6
2018-12-25T09:49:45.788Z,59.5
2018-12-25T09:50:36.118Z,59.5
2018-12-25T09:51:25.888Z,59.5
2018-12-25T09:52:16.225Z,59.5
2018-12-25T09:53:06.022Z,59.5
2018-12-25T09:53:56.070Z,59.4
2018-12-25T09:54:46.125Z,59.5
2018-12-25T09:55:35.897Z,59.4
2018-12-25T09:56:25.960Z,59.5
2018-12-25T09:57:16.294Z,59.4
2018-12-25T09:58:06.092Z,59.4
2018-12-25T09:58:56.412Z,59.4
2018-12-25T09:59:46.209Z,59.4
2018-12-25T10:00:38.258Z,59.4
2018-12-25T10:01:26.866Z,59.4
2018-12-25T10:02:16.353Z,59.4
2018-12-25T10:03:06.975Z,59.4
2018-12-25T10:03:56.746Z,59.4
2018-12-25T10:04:46.522Z,59.4
2018-12-25T10:05:37.139Z,59.4
2018-12-25T10:06:27.286Z,59.3
2018-12-25T10:07:16.780Z,59.3
2018-12-25T10:08:07.046Z,59.3
2018-12-25T10:08:56.829Z,59.3
2018-12-25T10:09:47.067Z,59.3
2018-12-25T10:10:37.001Z,59.3
2018-12-25T10:11:27.149Z,59.3
2018-12-25T10:12:17.674Z,59.3
2018-12-25T10:13:06.644Z,59.3
2018-12-25T10:13:57.000Z,59.3
2018-12-25T10:14:47.803Z,59.3
2018-12-25T10:15:37.379Z,59.3
2018-12-25T10:16:27.641Z,59.3
2018-12-25T10:17:18.219Z,59.3
2018-12-25T10:18:07.339Z,59.2
2018-12-25T10:18:58.086Z,59.2
2018-12-25T10:19:47.644Z,59.2
2018-12-25T10:20:38.185Z,59.2
2018-12-25T10:21:28.268Z,59.2
2018-12-25T10:22:18.041Z,59.2
2018-12-25T10:23:07.586Z,59.1
2018-12-25T10:23:57.911Z,59.1
2018-12-25T10:24:48.541Z,59.1
2018-12-25T10:25:38.023Z,59.1
2018-12-25T10:26:28.103Z,59.1
2018-12-25T10:27:17.867Z,59.1
2018-12-25T10:28:08.458Z,59.1
2018-12-25T10:28:58.992Z,59.1
2018-12-25T10:29:47.761Z,59.1
2018-12-25T10:30:38.570Z,59.1
2018-12-25T10:31:28.148Z,59.1
2018-12-25T10:32:18.687Z,59.1
2018-12-25T10:33:08.250Z,59.1
2018-12-25T10:33:58.763Z,59.1
2018-12-25T10:34:49.128Z,59
2018-12-25T10:35:38.075Z,59
2018-12-25T10:36:29.237Z,59
2018-12-25T10:37:18.575Z,59
2018-12-25T10:38:09.349Z,59
2018-12-25T10:38:58.654Z,59
2018-12-25T10:39:49.297Z,58.9
2018-12-25T10:40:38.697Z,58.9
2018-12-25T10:41:29.302Z,58.9
2018-12-25T10:42:19.622Z,58.9
2018-12-25T10:43:09.467Z,58.9
2018-12-25T10:43:59.769Z,58.9
2018-12-25T10:44:50.054Z,58.9
2018-12-25T10:45:39.029Z,58.9
2018-12-25T10:46:29.374Z,58.9
2018-12-25T10:47:19.219Z,58.9
2018-12-25T10:48:09.299Z,58.9
2018-12-25T10:48:59.824Z,58.9
2018-12-25T10:49:49.599Z,58.9
2018-12-25T10:50:42.389Z,58.9
2018-12-25T10:51:29.991Z,58.8
2018-12-25T10:52:19.566Z,58.8
2018-12-25T10:53:10.076Z,58.8
2018-12-25T10:54:00.413Z,58.8
2018-12-25T10:54:50.301Z,58.8
2018-12-25T10:55:40.536Z,58.8
2018-12-25T10:56:30.328Z,58.8
2018-12-25T10:57:20.630Z,58.8
2018-12-25T10:58:10.471Z,58.8
2018-12-25T10:58:59.763Z,58.8
2018-12-25T10:59:50.834Z,58.8
2018-12-25T11:00:40.333Z,58.8
2018-12-25T11:01:30.665Z,58.8
2018-12-25T11:02:21.001Z,58.7
2018-12-25T11:03:10.780Z,58.7
2018-12-25T11:04:00.801Z,58.7
2018-12-25T11:04:50.613Z,58.7
2018-12-25T11:05:41.220Z,58.7
2018-12-25T11:06:31.005Z,58.7
2018-12-25T11:07:21.162Z,58.7
2018-12-25T11:08:10.563Z,58.6
2018-12-25T11:09:01.406Z,58.6
2018-12-25T11:09:51.865Z,58.6
2018-12-25T11:10:41.025Z,58.6
2018-12-25T11:11:31.720Z,58.6
2018-12-25T11:12:21.672Z,58.6
2018-12-25T11:16:31.965Z,58.5
2018-12-25T11:19:01.859Z,58.5
2018-12-25T11:19:51.636Z,58.5
2018-12-25T11:20:41.710Z,58.5
2018-12-25T11:21:32.303Z,58.5
2018-12-25T11:22:22.931Z,58.5
2018-12-25T11:23:12.446Z,58.5
2018-12-25T11:24:02.208Z,58.4
2018-12-25T11:24:52.254Z,58.4
2018-12-25T11:25:42.564Z,58.4
2018-12-25T11:26:32.377Z,58.4
2018-12-25T11:27:22.419Z,58.4
2018-12-25T11:28:13.025Z,58.4
2018-12-25T11:29:02.261Z,58.4
2018-12-25T11:29:52.890Z,58.4
2018-12-25T11:30:42.897Z,58.4
2018-12-25T11:31:33.004Z,58.4
2018-12-25T11:32:23.057Z,58.3
2018-12-25T11:33:13.098Z,58.3
2018-12-25T11:34:05.091Z,58.3
2018-12-25T11:34:52.744Z,58.3
2018-12-25T11:35:42.736Z,58.3
2018-12-25T11:36:32.796Z,58.3
2018-12-25T11:37:22.641Z,58.3
2018-12-25T11:38:12.878Z,58.3
2018-12-25T11:39:03.510Z,58.3
2018-12-25T11:39:53.669Z,58.3
2018-12-25T11:40:43.348Z,58.3
2018-12-25T11:41:33.163Z,58.3
2018-12-25T11:42:22.909Z,58.2
2018-12-25T11:43:13.608Z,58.2
2018-12-25T11:44:03.830Z,58.2
2018-12-25T11:44:53.631Z,58.2
2018-12-25T11:45:43.408Z,58.2
2018-12-25T11:46:34.045Z,58.2
2018-12-25T11:47:24.088Z,58.2
2018-12-25T11:48:14.148Z,58.2
2018-12-25T11:49:03.933Z,58.1
2018-12-25T11:49:53.712Z,58.1
2018-12-25T11:50:44.325Z,58.1
2018-12-25T11:51:34.135Z,58.1
2018-12-25T11:52:32.205Z,58.1
2018-12-25T11:53:14.580Z,58.1
2018-12-25T11:54:04.512Z,58.1
2018-12-25T11:54:54.327Z,58.1
2018-12-25T11:55:44.729Z,58.1
2018-12-25T11:56:34.427Z,58.1
2018-12-25T11:57:24.774Z,58.1
2018-12-25T11:58:15.446Z,58.1
2018-12-25T11:59:04.919Z,58
2018-12-25T11:59:54.944Z,58
2018-12-25T12:00:44.012Z,58
2018-12-25T12:01:34.904Z,58
2018-12-25T12:02:25.106Z,58
2018-12-25T12:03:14.882Z,57.9
2018-12-25T12:04:05.243Z,57.9
2018-12-25T12:04:55.281Z,57.9